Wheatley, United Kingdom
Current Conditions -  °F | °C
As of 10:50 AM on Wednesday 26 Nov 2014 (Local Time) from EGTK Reporting Station
Haze Haze  
Wind Chill:   Ceiling: 200
Heat Index:   Visibility: 1.2mi
Dew Point:   Wind: 2mph
Humidity: 100%   Direction: 10°N
Pressure: 29.85"   Gusts: NA
Location:  51.75°N, 1.14°W
Report Text: EGTK 261050Z 01002KT 2000 BR BKN002 OVC003 07/07 Q1011
Loading
Personal Weather Stations






























Interactive Weather Map New forecast layout! Learn more

10-Day Weather Forecast

Advertisements
Track Severe Weather on mobile